sensor_id;sensor_type;location;lat;lon;timestamp;P1;durP1;ratioP1;P2;durP2;ratioP2
15677;SDS011;7939;50.814;6.368;2022-12-07T00:01:36;26.30;;;16.67;;
15677;SDS011;7939;50.814;6.368;2022-12-07T00:04:06;25.92;;;18.05;;
15677;SDS011;7939;50.814;6.368;2022-12-07T00:06:33;27.85;;;17.52;;
15677;SDS011;7939;50.814;6.368;2022-12-07T00:09:01;25.52;;;17.35;;
15677;SDS011;7939;50.814;6.368;2022-12-07T00:11:28;26.70;;;17.20;;
15677;SDS011;7939;50.814;6.368;2022-12-07T00:13:56;26.67;;;18.52;;
15677;SDS011;7939;50.814;6.368;2022-12-07T00:16:24;27.90;;;16.80;;
15677;SDS011;7939;50.814;6.368;2022-12-07T00:18:52;21.23;;;15.48;;
15677;SDS011;7939;50.814;6.368;2022-12-07T00:21:21;25.10;;;17.15;;
15677;SDS011;7939;50.814;6.368;2022-12-07T00:23:50;25.48;;;17.08;;
15677;SDS011;7939;50.814;6.368;2022-12-07T00:26:19;25.83;;;17.10;;
15677;SDS011;7939;50.814;6.368;2022-12-07T00:28:48;25.73;;;17.30;;
15677;SDS011;7939;50.814;6.368;2022-12-07T00:31:16;28.20;;;18.00;;
15677;SDS011;7939;50.814;6.368;2022-12-07T00:33:45;23.25;;;16.38;;
15677;SDS011;7939;50.814;6.368;2022-12-07T00:36:13;27.17;;;17.40;;
15677;SDS011;7939;50.814;6.368;2022-12-07T00:38:42;29.10;;;18.02;;
15677;SDS011;7939;50.814;6.368;2022-12-07T00:41:10;28.05;;;18.25;;
15677;SDS011;7939;50.814;6.368;2022-12-07T00:43:38;24.15;;;16.20;;
15677;SDS011;7939;50.814;6.368;2022-12-07T00:46:06;24.27;;;15.93;;
15677;SDS011;7939;50.814;6.368;2022-12-07T00:48:32;25.85;;;17.13;;
15677;SDS011;7939;50.814;6.368;2022-12-07T00:50:59;26.48;;;15.90;;
15677;SDS011;7939;50.814;6.368;2022-12-07T00:53:27;24.35;;;15.63;;
15677;SDS011;7939;50.814;6.368;2022-12-07T00:55:55;27.70;;;17.08;;
15677;SDS011;7939;50.814;6.368;2022-12-07T00:58:22;26.73;;;16.65;;
15677;SDS011;7939;50.814;6.368;2022-12-07T01:00:49;24.55;;;16.42;;
15677;SDS011;7939;50.814;6.368;2022-12-07T01:03:16;24.65;;;17.55;;
15677;SDS011;7939;50.814;6.368;2022-12-07T01:05:48;26.98;;;18.35;;
15677;SDS011;7939;50.814;6.368;2022-12-07T01:08:16;24.92;;;16.05;;
15677;SDS011;7939;50.814;6.368;2022-12-07T01:10:43;24.58;;;16.30;;
15677;SDS011;7939;50.814;6.368;2022-12-07T01:13:11;25.15;;;16.58;;
15677;SDS011;7939;50.814;6.368;2022-12-07T01:15:38;26.13;;;16.80;;
15677;SDS011;7939;50.814;6.368;2022-12-07T01:18:05;24.60;;;16.27;;
15677;SDS011;7939;50.814;6.368;2022-12-07T01:20:32;25.83;;;16.92;;
15677;SDS011;7939;50.814;6.368;2022-12-07T01:22:58;25.27;;;16.25;;
15677;SDS011;7939;50.814;6.368;2022-12-07T01:25:25;25.55;;;16.60;;
15677;SDS011;7939;50.814;6.368;2022-12-07T01:27:52;24.48;;;16.52;;
15677;SDS011;7939;50.814;6.368;2022-12-07T01:30:20;21.67;;;14.52;;
15677;SDS011;7939;50.814;6.368;2022-12-07T01:32:46;23.42;;;15.88;;
15677;SDS011;7939;50.814;6.368;2022-12-07T01:35:13;24.10;;;16.13;;
15677;SDS011;7939;50.814;6.368;2022-12-07T01:37:39;23.58;;;16.27;;
15677;SDS011;7939;50.814;6.368;2022-12-07T01:40:07;21.30;;;16.08;;
15677;SDS011;7939;50.814;6.368;2022-12-07T01:42:34;22.02;;;15.77;;
15677;SDS011;7939;50.814;6.368;2022-12-07T01:48:11;21.83;;;14.57;;
15677;SDS011;7939;50.814;6.368;2022-12-07T01:50:40;22.35;;;15.27;;
15677;SDS011;7939;50.814;6.368;2022-12-07T01:53:08;21.23;;;14.93;;
15677;SDS011;7939;50.814;6.368;2022-12-07T01:55:37;23.42;;;15.52;;
15677;SDS011;7939;50.814;6.368;2022-12-07T01:58:07;21.60;;;14.63;;
15677;SDS011;7939;50.814;6.368;2022-12-07T02:00:35;17.27;;;13.82;;
15677;SDS011;7939;50.814;6.368;2022-12-07T02:03:03;20.98;;;15.23;;
15677;SDS011;7939;50.814;6.368;2022-12-07T02:05:34;20.60;;;15.23;;
15677;SDS011;7939;50.814;6.368;2022-12-07T02:08:03;20.65;;;14.70;;
15677;SDS011;7939;50.814;6.368;2022-12-07T02:10:31;22.70;;;13.95;;
15677;SDS011;7939;50.814;6.368;2022-12-07T02:12:58;19.35;;;14.65;;
15677;SDS011;7939;50.814;6.368;2022-12-07T02:15:28;23.17;;;15.32;;
15677;SDS011;7939;50.814;6.368;2022-12-07T02:18:18;21.70;;;14.82;;
15677;SDS011;7939;50.814;6.368;2022-12-07T02:20:52;18.98;;;14.68;;
15677;SDS011;7939;50.814;6.368;2022-12-07T02:23:29;20.17;;;15.23;;
15677;SDS011;7939;50.814;6.368;2022-12-07T02:29:37;24.42;;;14.65;;
15677;SDS011;7939;50.814;6.368;2022-12-07T02:32:11;23.90;;;16.15;;
15677;SDS011;7939;50.814;6.368;2022-12-07T02:34:44;24.98;;;16.55;;
15677;SDS011;7939;50.814;6.368;2022-12-07T02:37:20;26.48;;;17.40;;
15677;SDS011;7939;50.814;6.368;2022-12-07T02:39:53;27.55;;;15.57;;
15677;SDS011;7939;50.814;6.368;2022-12-07T02:42:27;23.30;;;14.85;;
15677;SDS011;7939;50.814;6.368;2022-12-07T02:44:59;24.15;;;16.92;;
15677;SDS011;7939;50.814;6.368;2022-12-07T02:47:27;25.70;;;17.92;;
15677;SDS011;7939;50.814;6.368;2022-12-07T02:49:55;25.60;;;17.02;;
15677;SDS011;7939;50.814;6.368;2022-12-07T02:52:22;28.75;;;19.02;;
15677;SDS011;7939;50.814;6.368;2022-12-07T02:54:49;27.25;;;17.42;;
15677;SDS011;7939;50.814;6.368;2022-12-07T02:57:22;25.45;;;18.13;;
15677;SDS011;7939;50.814;6.368;2022-12-07T03:00:03;24.80;;;16.40;;
15677;SDS011;7939;50.814;6.368;2022-12-07T03:02:35;30.20;;;18.55;;
15677;SDS011;7939;50.814;6.368;2022-12-07T03:05:25;26.83;;;17.50;;
15677;SDS011;7939;50.814;6.368;2022-12-07T03:08:02;31.50;;;18.38;;
15677;SDS011;7939;50.814;6.368;2022-12-07T03:10:40;26.70;;;16.60;;
15677;SDS011;7939;50.814;6.368;2022-12-07T03:13:16;29.83;;;19.13;;
15677;SDS011;7939;50.814;6.368;2022-12-07T03:15:53;29.77;;;17.90;;
15677;SDS011;7939;50.814;6.368;2022-12-07T03:18:24;24.83;;;16.38;;
15677;SDS011;7939;50.814;6.368;2022-12-07T03:20:55;27.08;;;17.92;;
15677;SDS011;7939;50.814;6.368;2022-12-07T03:23:25;26.48;;;17.33;;
15677;SDS011;7939;50.814;6.368;2022-12-07T03:25:54;24.90;;;17.00;;
15677;SDS011;7939;50.814;6.368;2022-12-07T03:28:26;25.92;;;16.30;;
15677;SDS011;7939;50.814;6.368;2022-12-07T03:30:59;25.17;;;16.40;;
15677;SDS011;7939;50.814;6.368;2022-12-07T03:33:31;21.95;;;15.68;;
15677;SDS011;7939;50.814;6.368;2022-12-07T03:36:04;29.08;;;18.67;;
15677;SDS011;7939;50.814;6.368;2022-12-07T03:38:35;31.75;;;18.05;;
15677;SDS011;7939;50.814;6.368;2022-12-07T03:41:07;24.15;;;16.45;;
15677;SDS011;7939;50.814;6.368;2022-12-07T03:43:38;28.45;;;16.80;;
15677;SDS011;7939;50.814;6.368;2022-12-07T03:46:10;23.63;;;16.00;;
15677;SDS011;7939;50.814;6.368;2022-12-07T03:48:46;24.70;;;15.48;;
15677;SDS011;7939;50.814;6.368;2022-12-07T03:51:22;26.45;;;15.85;;
15677;SDS011;7939;50.814;6.368;2022-12-07T03:53:53;27.52;;;16.17;;
15677;SDS011;7939;50.814;6.368;2022-12-07T03:56:25;22.60;;;15.95;;
15677;SDS011;7939;50.814;6.368;2022-12-07T03:58:53;22.55;;;15.68;;
15677;SDS011;7939;50.814;6.368;2022-12-07T04:01:22;24.02;;;14.63;;
15677;SDS011;7939;50.814;6.368;2022-12-07T04:03:49;24.40;;;16.13;;
15677;SDS011;7939;50.814;6.368;2022-12-07T04:06:15;20.90;;;14.70;;
15677;SDS011;7939;50.814;6.368;2022-12-07T04:08:42;26.45;;;17.35;;
15677;SDS011;7939;50.814;6.368;2022-12-07T04:11:08;26.35;;;16.48;;
15677;SDS011;7939;50.814;6.368;2022-12-07T04:13:35;26.60;;;16.00;;
15677;SDS011;7939;50.814;6.368;2022-12-07T04:16:23;25.83;;;15.38;;
15677;SDS011;7939;50.814;6.368;2022-12-07T04:18:49;21.92;;;15.43;;
15677;SDS011;7939;50.814;6.368;2022-12-07T04:21:16;27.08;;;16.10;;
15677;SDS011;7939;50.814;6.368;2022-12-07T04:23:42;24.75;;;16.13;;
15677;SDS011;7939;50.814;6.368;2022-12-07T04:26:09;27.02;;;16.23;;
15677;SDS011;7939;50.814;6.368;2022-12-07T04:28:35;21.48;;;14.85;;
15677;SDS011;7939;50.814;6.368;2022-12-07T04:31:02;24.85;;;15.38;;
15677;SDS011;7939;50.814;6.368;2022-12-07T04:33:30;25.95;;;15.40;;
15677;SDS011;7939;50.814;6.368;2022-12-07T04:35:56;24.27;;;15.18;;
15677;SDS011;7939;50.814;6.368;2022-12-07T04:38:23;24.48;;;16.10;;
15677;SDS011;7939;50.814;6.368;2022-12-07T04:40:49;23.40;;;16.02;;
15677;SDS011;7939;50.814;6.368;2022-12-07T04:43:16;22.27;;;15.13;;
15677;SDS011;7939;50.814;6.368;2022-12-07T04:45:45;25.13;;;14.75;;
15677;SDS011;7939;50.814;6.368;2022-12-07T04:48:12;21.98;;;14.93;;
15677;SDS011;7939;50.814;6.368;2022-12-07T04:50:40;25.15;;;15.75;;
15677;SDS011;7939;50.814;6.368;2022-12-07T04:53:06;23.00;;;15.02;;
15677;SDS011;7939;50.814;6.368;2022-12-07T04:55:33;26.58;;;16.10;;
15677;SDS011;7939;50.814;6.368;2022-12-07T04:57:59;22.00;;;14.50;;
15677;SDS011;7939;50.814;6.368;2022-12-07T05:00:26;27.77;;;14.85;;
15677;SDS011;7939;50.814;6.368;2022-12-07T05:02:52;21.92;;;14.32;;
15677;SDS011;7939;50.814;6.368;2022-12-07T05:05:19;25.52;;;15.65;;
15677;SDS011;7939;50.814;6.368;2022-12-07T05:07:47;21.92;;;13.98;;
15677;SDS011;7939;50.814;6.368;2022-12-07T05:10:13;23.05;;;14.27;;
15677;SDS011;7939;50.814;6.368;2022-12-07T05:12:40;21.13;;;14.00;;
15677;SDS011;7939;50.814;6.368;2022-12-07T05:15:07;26.73;;;15.55;;
15677;SDS011;7939;50.814;6.368;2022-12-07T05:17:33;23.13;;;15.20;;
15677;SDS011;7939;50.814;6.368;2022-12-07T05:20:00;25.35;;;15.73;;
15677;SDS011;7939;50.814;6.368;2022-12-07T05:22:27;25.70;;;14.43;;
15677;SDS011;7939;50.814;6.368;2022-12-07T05:24:54;26.40;;;15.32;;
15677;SDS011;7939;50.814;6.368;2022-12-07T05:27:21;23.63;;;14.35;;
15677;SDS011;7939;50.814;6.368;2022-12-07T05:29:49;21.00;;;13.90;;
15677;SDS011;7939;50.814;6.368;2022-12-07T05:32:16;25.50;;;15.82;;
15677;SDS011;7939;50.814;6.368;2022-12-07T05:34:43;25.20;;;15.23;;
15677;SDS011;7939;50.814;6.368;2022-12-07T05:37:09;24.10;;;14.98;;
15677;SDS011;7939;50.814;6.368;2022-12-07T05:39:36;23.17;;;15.00;;
15677;SDS011;7939;50.814;6.368;2022-12-07T05:42:07;22.80;;;15.20;;
15677;SDS011;7939;50.814;6.368;2022-12-07T05:44:42;23.58;;;15.45;;
15677;SDS011;7939;50.814;6.368;2022-12-07T05:47:09;27.45;;;16.20;;
15677;SDS011;7939;50.814;6.368;2022-12-07T05:49:37;23.60;;;15.82;;
15677;SDS011;7939;50.814;6.368;2022-12-07T05:52:04;24.35;;;14.63;;
15677;SDS011;7939;50.814;6.368;2022-12-07T05:54:31;23.02;;;14.90;;
15677;SDS011;7939;50.814;6.368;2022-12-07T05:56:57;21.80;;;13.55;;
15677;SDS011;7939;50.814;6.368;2022-12-07T05:59:25;25.80;;;16.25;;
15677;SDS011;7939;50.814;6.368;2022-12-07T06:01:53;21.45;;;14.90;;
15677;SDS011;7939;50.814;6.368;2022-12-07T06:04:22;28.30;;;16.95;;
15677;SDS011;7939;50.814;6.368;2022-12-07T06:06:49;26.48;;;15.57;;
15677;SDS011;7939;50.814;6.368;2022-12-07T06:09:16;27.98;;;16.30;;
15677;SDS011;7939;50.814;6.368;2022-12-07T06:11:44;26.52;;;16.33;;
15677;SDS011;7939;50.814;6.368;2022-12-07T06:14:30;27.02;;;16.73;;
15677;SDS011;7939;50.814;6.368;2022-12-07T06:16:56;24.52;;;15.45;;
15677;SDS011;7939;50.814;6.368;2022-12-07T06:19:23;23.52;;;15.30;;
15677;SDS011;7939;50.814;6.368;2022-12-07T06:21:50;20.23;;;13.68;;
15677;SDS011;7939;50.814;6.368;2022-12-07T06:24:17;20.52;;;14.32;;
15677;SDS011;7939;50.814;6.368;2022-12-07T06:26:44;24.95;;;15.57;;
15677;SDS011;7939;50.814;6.368;2022-12-07T06:29:11;24.15;;;13.85;;
15677;SDS011;7939;50.814;6.368;2022-12-07T06:31:39;22.55;;;14.25;;
15677;SDS011;7939;50.814;6.368;2022-12-07T06:34:07;22.20;;;14.18;;
15677;SDS011;7939;50.814;6.368;2022-12-07T06:36:36;20.05;;;13.73;;
15677;SDS011;7939;50.814;6.368;2022-12-07T06:39:03;21.13;;;12.93;;
15677;SDS011;7939;50.814;6.368;2022-12-07T06:41:31;24.75;;;14.80;;
15677;SDS011;7939;50.814;6.368;2022-12-07T06:43:58;22.60;;;13.68;;
15677;SDS011;7939;50.814;6.368;2022-12-07T06:46:24;17.10;;;11.93;;
15677;SDS011;7939;50.814;6.368;2022-12-07T06:48:52;21.77;;;13.43;;
15677;SDS011;7939;50.814;6.368;2022-12-07T06:51:19;23.20;;;13.63;;
15677;SDS011;7939;50.814;6.368;2022-12-07T06:53:46;23.20;;;14.02;;
15677;SDS011;7939;50.814;6.368;2022-12-07T06:56:12;26.88;;;13.88;;
15677;SDS011;7939;50.814;6.368;2022-12-07T06:58:39;24.98;;;14.90;;
15677;SDS011;7939;50.814;6.368;2022-12-07T07:01:08;22.00;;;14.40;;
15677;SDS011;7939;50.814;6.368;2022-12-07T07:03:36;20.55;;;13.43;;
15677;SDS011;7939;50.814;6.368;2022-12-07T07:06:04;24.02;;;15.00;;
15677;SDS011;7939;50.814;6.368;2022-12-07T07:08:32;22.98;;;13.88;;
15677;SDS011;7939;50.814;6.368;2022-12-07T07:10:59;24.83;;;13.52;;
15677;SDS011;7939;50.814;6.368;2022-12-07T07:13:26;21.55;;;14.43;;
15677;SDS011;7939;50.814;6.368;2022-12-07T07:15:52;22.23;;;13.73;;
15677;SDS011;7939;50.814;6.368;2022-12-07T07:18:19;22.45;;;13.88;;
15677;SDS011;7939;50.814;6.368;2022-12-07T07:20:45;21.85;;;14.55;;
15677;SDS011;7939;50.814;6.368;2022-12-07T07:23:13;24.55;;;14.82;;
15677;SDS011;7939;50.814;6.368;2022-12-07T07:25:40;22.63;;;13.85;;
15677;SDS011;7939;50.814;6.368;2022-12-07T07:28:06;20.48;;;12.88;;
15677;SDS011;7939;50.814;6.368;2022-12-07T07:30:33;24.40;;;14.52;;
15677;SDS011;7939;50.814;6.368;2022-12-07T07:33:00;23.80;;;14.07;;
15677;SDS011;7939;50.814;6.368;2022-12-07T07:35:28;24.60;;;16.25;;
15677;SDS011;7939;50.814;6.368;2022-12-07T07:37:56;24.60;;;16.27;;
15677;SDS011;7939;50.814;6.368;2022-12-07T07:40:24;25.08;;;15.52;;
15677;SDS011;7939;50.814;6.368;2022-12-07T07:42:52;25.60;;;16.05;;
15677;SDS011;7939;50.814;6.368;2022-12-07T07:45:20;22.80;;;14.45;;
15677;SDS011;7939;50.814;6.368;2022-12-07T07:47:47;23.58;;;13.82;;
15677;SDS011;7939;50.814;6.368;2022-12-07T07:50:14;25.30;;;14.75;;
15677;SDS011;7939;50.814;6.368;2022-12-07T07:52:41;24.88;;;14.93;;
15677;SDS011;7939;50.814;6.368;2022-12-07T07:55:08;24.98;;;15.05;;
15677;SDS011;7939;50.814;6.368;2022-12-07T07:57:37;19.33;;;13.60;;
15677;SDS011;7939;50.814;6.368;2022-12-07T08:00:05;26.33;;;15.40;;
15677;SDS011;7939;50.814;6.368;2022-12-07T08:02:34;26.92;;;16.05;;
15677;SDS011;7939;50.814;6.368;2022-12-07T08:05:00;21.73;;;14.30;;
15677;SDS011;7939;50.814;6.368;2022-12-07T08:07:27;19.10;;;13.05;;
15677;SDS011;7939;50.814;6.368;2022-12-07T08:09:54;24.10;;;14.48;;
15677;SDS011;7939;50.814;6.368;2022-12-07T08:12:20;24.50;;;14.60;;
15677;SDS011;7939;50.814;6.368;2022-12-07T08:14:48;20.55;;;13.20;;
15677;SDS011;7939;50.814;6.368;2022-12-07T08:17:15;24.85;;;14.00;;
15677;SDS011;7939;50.814;6.368;2022-12-07T08:19:41;24.35;;;15.02;;
15677;SDS011;7939;50.814;6.368;2022-12-07T08:22:08;23.48;;;15.05;;
15677;SDS011;7939;50.814;6.368;2022-12-07T08:24:35;22.35;;;14.02;;
15677;SDS011;7939;50.814;6.368;2022-12-07T08:27:02;25.05;;;15.82;;
15677;SDS011;7939;50.814;6.368;2022-12-07T08:29:29;22.80;;;15.15;;
15677;SDS011;7939;50.814;6.368;2022-12-07T08:31:57;22.15;;;13.98;;
15677;SDS011;7939;50.814;6.368;2022-12-07T08:34:25;24.83;;;14.32;;
15677;SDS011;7939;50.814;6.368;2022-12-07T08:36:52;22.98;;;14.45;;
15677;SDS011;7939;50.814;6.368;2022-12-07T08:39:18;22.58;;;14.88;;
15677;SDS011;7939;50.814;6.368;2022-12-07T08:41:45;27.75;;;15.20;;
15677;SDS011;7939;50.814;6.368;2022-12-07T08:44:12;24.65;;;14.73;;
15677;SDS011;7939;50.814;6.368;2022-12-07T08:46:38;21.50;;;13.90;;
15677;SDS011;7939;50.814;6.368;2022-12-07T08:49:13;19.42;;;13.13;;
15677;SDS011;7939;50.814;6.368;2022-12-07T08:51:42;19.92;;;13.70;;
15677;SDS011;7939;50.814;6.368;2022-12-07T08:54:10;22.63;;;13.55;;
15677;SDS011;7939;50.814;6.368;2022-12-07T08:56:39;21.35;;;14.45;;
15677;SDS011;7939;50.814;6.368;2022-12-07T08:59:07;20.02;;;13.00;;
15677;SDS011;7939;50.814;6.368;2022-12-07T09:01:34;18.40;;;12.68;;
15677;SDS011;7939;50.814;6.368;2022-12-07T09:04:00;21.25;;;13.52;;
15677;SDS011;7939;50.814;6.368;2022-12-07T09:06:28;21.65;;;13.63;;
15677;SDS011;7939;50.814;6.368;2022-12-07T09:08:56;20.27;;;12.02;;
15677;SDS011;7939;50.814;6.368;2022-12-07T09:11:25;17.60;;;11.70;;
15677;SDS011;7939;50.814;6.368;2022-12-07T09:13:52;21.52;;;12.45;;
15677;SDS011;7939;50.814;6.368;2022-12-07T09:16:19;17.05;;;10.85;;
15677;SDS011;7939;50.814;6.368;2022-12-07T09:18:45;14.50;;;9.88;;
15677;SDS011;7939;50.814;6.368;2022-12-07T09:21:12;17.42;;;10.75;;
15677;SDS011;7939;50.814;6.368;2022-12-07T09:23:40;14.20;;;9.40;;
15677;SDS011;7939;50.814;6.368;2022-12-07T09:26:07;12.80;;;8.73;;
15677;SDS011;7939;50.814;6.368;2022-12-07T09:28:34;16.42;;;9.77;;
15677;SDS011;7939;50.814;6.368;2022-12-07T09:31:01;13.30;;;8.93;;
15677;SDS011;7939;50.814;6.368;2022-12-07T09:33:28;14.93;;;9.90;;
15677;SDS011;7939;50.814;6.368;2022-12-07T09:35:55;17.25;;;9.55;;
15677;SDS011;7939;50.814;6.368;2022-12-07T09:38:22;16.05;;;9.20;;
15677;SDS011;7939;50.814;6.368;2022-12-07T09:40:50;14.02;;;9.05;;
15677;SDS011;7939;50.814;6.368;2022-12-07T09:43:18;18.17;;;9.48;;
15677;SDS011;7939;50.814;6.368;2022-12-07T09:45:46;17.13;;;10.90;;
15677;SDS011;7939;50.814;6.368;2022-12-07T09:48:17;17.33;;;10.02;;
15677;SDS011;7939;50.814;6.368;2022-12-07T09:50:46;14.82;;;10.25;;
15677;SDS011;7939;50.814;6.368;2022-12-07T09:53:14;16.25;;;9.85;;
15677;SDS011;7939;50.814;6.368;2022-12-07T09:55:43;16.65;;;9.93;;
15677;SDS011;7939;50.814;6.368;2022-12-07T09:58:13;15.40;;;9.93;;
15677;SDS011;7939;50.814;6.368;2022-12-07T10:00:46;18.50;;;10.23;;
15677;SDS011;7939;50.814;6.368;2022-12-07T10:03:13;17.73;;;11.27;;
15677;SDS011;7939;50.814;6.368;2022-12-07T10:05:40;14.13;;;8.82;;
15677;SDS011;7939;50.814;6.368;2022-12-07T10:08:10;15.27;;;9.95;;
15677;SDS011;7939;50.814;6.368;2022-12-07T10:10:38;14.63;;;9.38;;
15677;SDS011;7939;50.814;6.368;2022-12-07T10:13:06;15.30;;;9.90;;
15677;SDS011;7939;50.814;6.368;2022-12-07T10:15:42;15.13;;;10.35;;
15677;SDS011;7939;50.814;6.368;2022-12-07T10:18:18;20.88;;;10.90;;
15677;SDS011;7939;50.814;6.368;2022-12-07T10:20:59;16.77;;;10.32;;
15677;SDS011;7939;50.814;6.368;2022-12-07T10:23:27;18.58;;;10.75;;
15677;SDS011;7939;50.814;6.368;2022-12-07T10:25:54;21.70;;;10.52;;
15677;SDS011;7939;50.814;6.368;2022-12-07T10:28:20;16.77;;;10.57;;
15677;SDS011;7939;50.814;6.368;2022-12-07T10:30:56;16.10;;;9.88;;
15677;SDS011;7939;50.814;6.368;2022-12-07T10:33:28;15.88;;;9.80;;
15677;SDS011;7939;50.814;6.368;2022-12-07T10:35:56;18.27;;;10.48;;
15677;SDS011;7939;50.814;6.368;2022-12-07T10:38:24;18.85;;;10.77;;
15677;SDS011;7939;50.814;6.368;2022-12-07T10:41:02;21.58;;;11.85;;
15677;SDS011;7939;50.814;6.368;2022-12-07T10:43:30;20.00;;;10.13;;
15677;SDS011;7939;50.814;6.368;2022-12-07T10:48:59;17.27;;;10.63;;
15677;SDS011;7939;50.814;6.368;2022-12-07T10:51:36;17.88;;;12.05;;
15677;SDS011;7939;50.814;6.368;2022-12-07T10:54:10;17.45;;;10.93;;
15677;SDS011;7939;50.814;6.368;2022-12-07T10:56:46;20.13;;;9.07;;
15677;SDS011;7939;50.814;6.368;2022-12-07T11:02:26;14.68;;;9.05;;
15677;SDS011;7939;50.814;6.368;2022-12-07T11:05:06;17.90;;;11.20;;
15677;SDS011;7939;50.814;6.368;2022-12-07T11:07:45;19.05;;;10.98;;
15677;SDS011;7939;50.814;6.368;2022-12-07T11:10:22;18.10;;;11.07;;
15677;SDS011;7939;50.814;6.368;2022-12-07T11:12:56;17.65;;;11.25;;
15677;SDS011;7939;50.814;6.368;2022-12-07T11:15:32;20.30;;;11.05;;
15677;SDS011;7939;50.814;6.368;2022-12-07T11:18:23;18.55;;;10.95;;
15677;SDS011;7939;50.814;6.368;2022-12-07T11:20:55;16.00;;;11.50;;
15677;SDS011;7939;50.814;6.368;2022-12-07T11:23:31;16.75;;;10.45;;
15677;SDS011;7939;50.814;6.368;2022-12-07T11:26:07;17.35;;;10.90;;
15677;SDS011;7939;50.814;6.368;2022-12-07T11:28:43;16.23;;;9.57;;
15677;SDS011;7939;50.814;6.368;2022-12-07T11:31:29;16.00;;;9.75;;
15677;SDS011;7939;50.814;6.368;2022-12-07T11:34:04;19.02;;;10.57;;
15677;SDS011;7939;50.814;6.368;2022-12-07T11:36:36;15.95;;;9.85;;
15677;SDS011;7939;50.814;6.368;2022-12-07T11:39:10;15.40;;;8.70;;
15677;SDS011;7939;50.814;6.368;2022-12-07T11:41:42;13.30;;;9.70;;
15677;SDS011;7939;50.814;6.368;2022-12-07T11:44:22;15.10;;;8.82;;
15677;SDS011;7939;50.814;6.368;2022-12-07T11:46:58;15.15;;;9.55;;
15677;SDS011;7939;50.814;6.368;2022-12-07T11:49:33;14.82;;;8.80;;
15677;SDS011;7939;50.814;6.368;2022-12-07T11:52:09;13.52;;;9.57;;
15677;SDS011;7939;50.814;6.368;2022-12-07T11:54:44;15.77;;;10.05;;
15677;SDS011;7939;50.814;6.368;2022-12-07T11:57:15;12.65;;;8.98;;
15677;SDS011;7939;50.814;6.368;2022-12-07T11:59:47;12.07;;;8.88;;
15677;SDS011;7939;50.814;6.368;2022-12-07T12:02:19;15.48;;;9.00;;
15677;SDS011;7939;50.814;6.368;2022-12-07T12:04:53;14.77;;;9.52;;
15677;SDS011;7939;50.814;6.368;2022-12-07T12:07:25;16.35;;;9.55;;
15677;SDS011;7939;50.814;6.368;2022-12-07T12:09:54;16.08;;;9.45;;
15677;SDS011;7939;50.814;6.368;2022-12-07T12:12:38;17.85;;;9.32;;
15677;SDS011;7939;50.814;6.368;2022-12-07T12:15:23;15.80;;;9.27;;
15677;SDS011;7939;50.814;6.368;2022-12-07T12:18:05;15.52;;;9.25;;
15677;SDS011;7939;50.814;6.368;2022-12-07T12:20:58;13.68;;;9.38;;
15677;SDS011;7939;50.814;6.368;2022-12-07T12:23:30;14.27;;;9.63;;
15677;SDS011;7939;50.814;6.368;2022-12-07T12:26:03;14.70;;;9.13;;
15677;SDS011;7939;50.814;6.368;2022-12-07T12:28:35;14.05;;;8.60;;
15677;SDS011;7939;50.814;6.368;2022-12-07T12:31:07;10.02;;;7.57;;
15677;SDS011;7939;50.814;6.368;2022-12-07T12:33:36;12.07;;;8.40;;
15677;SDS011;7939;50.814;6.368;2022-12-07T12:36:18;17.38;;;9.48;;
15677;SDS011;7939;50.814;6.368;2022-12-07T12:38:50;15.18;;;9.27;;
15677;SDS011;7939;50.814;6.368;2022-12-07T12:41:51;16.65;;;8.70;;
15677;SDS011;7939;50.814;6.368;2022-12-07T12:44:41;16.35;;;9.13;;
15677;SDS011;7939;50.814;6.368;2022-12-07T12:50:23;14.82;;;9.10;;
15677;SDS011;7939;50.814;6.368;2022-12-07T12:52:53;13.13;;;8.77;;
15677;SDS011;7939;50.814;6.368;2022-12-07T12:58:36;12.65;;;8.98;;
15677;SDS011;7939;50.814;6.368;2022-12-07T13:10:34;11.48;;;8.10;;
15677;SDS011;7939;50.814;6.368;2022-12-07T13:13:08;12.18;;;7.95;;
15677;SDS011;7939;50.814;6.368;2022-12-07T13:25:20;10.25;;;6.68;;
15677;SDS011;7939;50.814;6.368;2022-12-07T13:27:55;12.02;;;6.95;;
15677;SDS011;7939;50.814;6.368;2022-12-07T13:30:24;10.95;;;6.70;;
15677;SDS011;7939;50.814;6.368;2022-12-07T13:32:52;13.25;;;7.75;;
15677;SDS011;7939;50.814;6.368;2022-12-07T13:35:30;10.45;;;7.18;;
15677;SDS011;7939;50.814;6.368;2022-12-07T13:37:58;11.85;;;7.47;;
15677;SDS011;7939;50.814;6.368;2022-12-07T13:40:26;10.77;;;7.78;;
15677;SDS011;7939;50.814;6.368;2022-12-07T13:42:57;9.77;;;7.80;;
15677;SDS011;7939;50.814;6.368;2022-12-07T13:45:25;12.48;;;7.78;;
15677;SDS011;7939;50.814;6.368;2022-12-07T13:48:14;15.07;;;8.00;;
15677;SDS011;7939;50.814;6.368;2022-12-07T13:50:47;14.18;;;8.10;;
15677;SDS011;7939;50.814;6.368;2022-12-07T13:53:18;15.80;;;7.03;;
15677;SDS011;7939;50.814;6.368;2022-12-07T13:55:46;9.70;;;7.00;;
15677;SDS011;7939;50.814;6.368;2022-12-07T13:58:14;10.60;;;7.22;;
15677;SDS011;7939;50.814;6.368;2022-12-07T14:00:40;9.98;;;7.38;;
15677;SDS011;7939;50.814;6.368;2022-12-07T14:03:23;9.57;;;7.85;;
15677;SDS011;7939;50.814;6.368;2022-12-07T14:06:05;11.50;;;7.43;;
15677;SDS011;7939;50.814;6.368;2022-12-07T14:08:33;9.05;;;7.20;;
15677;SDS011;7939;50.814;6.368;2022-12-07T14:11:01;11.55;;;7.20;;
15677;SDS011;7939;50.814;6.368;2022-12-07T14:13:30;9.10;;;6.70;;
15677;SDS011;7939;50.814;6.368;2022-12-07T14:15:59;12.23;;;7.47;;
15677;SDS011;7939;50.814;6.368;2022-12-07T14:18:30;9.75;;;7.00;;
15677;SDS011;7939;50.814;6.368;2022-12-07T14:21:03;8.88;;;7.15;;
15677;SDS011;7939;50.814;6.368;2022-12-07T14:23:30;13.18;;;8.35;;
15677;SDS011;7939;50.814;6.368;2022-12-07T14:26:06;9.73;;;7.82;;
15677;SDS011;7939;50.814;6.368;2022-12-07T14:28:35;10.15;;;7.93;;
15677;SDS011;7939;50.814;6.368;2022-12-07T14:31:03;10.70;;;7.82;;
15677;SDS011;7939;50.814;6.368;2022-12-07T14:33:34;8.95;;;7.28;;
15677;SDS011;7939;50.814;6.368;2022-12-07T14:36:00;8.73;;;6.20;;
15677;SDS011;7939;50.814;6.368;2022-12-07T14:38:27;11.25;;;8.73;;
15677;SDS011;7939;50.814;6.368;2022-12-07T14:40:54;10.02;;;7.45;;
15677;SDS011;7939;50.814;6.368;2022-12-07T14:43:43;13.25;;;7.75;;
15677;SDS011;7939;50.814;6.368;2022-12-07T14:46:09;10.30;;;7.95;;
15677;SDS011;7939;50.814;6.368;2022-12-07T14:48:36;11.43;;;7.72;;
15677;SDS011;7939;50.814;6.368;2022-12-07T14:51:03;10.25;;;7.47;;
15677;SDS011;7939;50.814;6.368;2022-12-07T14:53:41;11.27;;;8.18;;
15677;SDS011;7939;50.814;6.368;2022-12-07T14:56:10;11.02;;;7.68;;
15677;SDS011;7939;50.814;6.368;2022-12-07T14:58:37;8.20;;;7.32;;
15677;SDS011;7939;50.814;6.368;2022-12-07T15:01:05;11.10;;;7.50;;
15677;SDS011;7939;50.814;6.368;2022-12-07T15:03:32;13.13;;;8.15;;
15677;SDS011;7939;50.814;6.368;2022-12-07T15:05:59;11.85;;;8.13;;
15677;SDS011;7939;50.814;6.368;2022-12-07T15:08:26;13.10;;;8.60;;
15677;SDS011;7939;50.814;6.368;2022-12-07T15:10:53;11.57;;;8.20;;
15677;SDS011;7939;50.814;6.368;2022-12-07T15:13:19;14.43;;;8.93;;
15677;SDS011;7939;50.814;6.368;2022-12-07T15:16:07;11.88;;;7.97;;
15677;SDS011;7939;50.814;6.368;2022-12-07T15:18:36;11.20;;;8.32;;
15677;SDS011;7939;50.814;6.368;2022-12-07T15:21:03;14.68;;;8.70;;
15677;SDS011;7939;50.814;6.368;2022-12-07T15:23:30;10.98;;;8.18;;
15677;SDS011;7939;50.814;6.368;2022-12-07T15:25:57;12.10;;;8.25;;
15677;SDS011;7939;50.814;6.368;2022-12-07T15:28:23;11.82;;;8.40;;
15677;SDS011;7939;50.814;6.368;2022-12-07T15:30:50;10.27;;;8.00;;
15677;SDS011;7939;50.814;6.368;2022-12-07T15:33:18;11.18;;;9.40;;